createdAt,value
2018-03-02T00:01:01.266Z,68.10
2018-03-02T00:03:30.388Z,72.77
2018-03-02T00:05:59.482Z,64.83
2018-03-02T00:08:28.586Z,69.13
2018-03-02T00:10:57.700Z,66.67
2018-03-02T00:13:26.789Z,68.30
2018-03-02T00:15:55.894Z,70.97
2018-03-02T00:18:24.990Z,67.90
2018-03-02T00:20:54.110Z,60.60
2018-03-02T00:23:23.226Z,71.30
2018-03-02T00:25:52.338Z,69.10
2018-03-02T00:28:22.191Z,70.90
2018-03-02T00:30:51.324Z,73.90
2018-03-02T00:33:20.422Z,69.30
2018-03-02T00:35:49.528Z,66.97
2018-03-02T00:38:18.629Z,69.53
2018-03-02T00:40:48.486Z,68.67
2018-03-02T00:43:17.633Z,62.80
2018-03-02T00:45:46.727Z,62.70
2018-03-02T00:48:15.830Z,71.10
2018-03-02T00:50:45.693Z,73.67
2018-03-02T00:53:14.877Z,75.00
2018-03-02T00:55:43.970Z,66.47
2018-03-02T00:58:13.076Z,71.00
2018-03-02T01:00:42.166Z,64.13
2018-03-02T01:03:11.306Z,74.33
2018-03-02T01:05:41.171Z,64.20
2018-03-02T01:08:10.261Z,71.10
2018-03-02T01:10:39.378Z,73.03
2018-03-02T01:13:09.954Z,68.20
2018-03-02T01:15:39.082Z,68.83
2018-03-02T01:18:08.976Z,71.50
2018-03-02T01:20:38.872Z,77.00
2018-03-02T01:23:07.954Z,71.03
2018-03-02T01:25:37.830Z,65.07
2018-03-02T01:28:06.950Z,65.07
2018-03-02T01:30:36.059Z,70.37
2018-03-02T01:33:05.143Z,63.20
2018-03-02T01:35:34.279Z,65.93
2018-03-02T01:38:03.357Z,65.17
2018-03-02T01:40:32.468Z,71.50
2018-03-02T01:43:01.702Z,69.57
2018-03-02T01:45:30.794Z,66.80
2018-03-02T01:47:59.905Z,68.30
2018-03-02T01:50:29.003Z,63.20
2018-03-02T01:52:58.126Z,73.90
2018-03-02T01:55:27.215Z,66.00
2018-03-02T01:57:56.329Z,71.83
2018-03-02T02:00:25.432Z,66.60
2018-03-02T02:02:54.525Z,73.03
2018-03-02T02:05:23.653Z,71.27
2018-03-02T02:07:53.516Z,78.27
2018-03-02T02:10:22.620Z,69.53
2018-03-02T02:12:51.713Z,72.90
2018-03-02T02:15:20.834Z,76.50
2018-03-02T02:17:49.939Z,66.33
2018-03-02T02:20:19.824Z,63.60
2018-03-02T02:22:48.948Z,62.90
2018-03-02T02:25:18.055Z,71.30
2018-03-02T02:27:47.925Z,78.53
2018-03-02T02:30:17.054Z,71.83
2018-03-02T02:32:46.910Z,70.20
2018-03-02T02:35:16.028Z,63.97
2018-03-02T02:37:45.912Z,73.20
2018-03-02T02:40:15.003Z,74.10
2018-03-02T02:42:44.115Z,68.10
2018-03-02T02:45:13.229Z,67.20
2018-03-02T02:47:42.345Z,75.47
2018-03-02T02:50:11.441Z,67.73
2018-03-02T02:52:40.598Z,72.60
2018-03-02T02:55:09.705Z,70.83
2018-03-02T02:57:38.809Z,64.03
2018-03-02T03:00:07.915Z,65.90
2018-03-02T03:02:37.032Z,68.60
2018-03-02T03:05:06.145Z,64.17
2018-03-02T03:07:36.024Z,70.20
2018-03-02T03:10:05.128Z,74.27
2018-03-02T03:12:34.398Z,83.57
2018-03-02T03:15:03.494Z,63.67
2018-03-02T03:17:33.386Z,68.87
2018-03-02T03:20:02.503Z,63.63
2018-03-02T03:22:31.597Z,65.90
2018-03-02T03:25:00.787Z,71.87
2018-03-02T03:27:29.871Z,67.43
2018-03-02T03:29:58.992Z,71.63
2018-03-02T03:32:28.082Z,73.03
2018-03-02T03:34:57.201Z,67.90
2018-03-02T03:37:26.299Z,68.57
2018-03-02T03:39:55.414Z,66.30
2018-03-02T03:42:24.541Z,65.37
2018-03-02T03:44:53.651Z,72.83
2018-03-02T03:47:22.746Z,63.57
2018-03-02T03:49:51.871Z,68.63
2018-03-02T03:52:20.981Z,75.87
2018-03-02T03:54:50.133Z,64.83
2018-03-02T03:57:19.209Z,77.97
2018-03-02T03:59:49.075Z,65.93
2018-03-02T04:02:18.197Z,63.87
2018-03-02T04:04:47.315Z,69.53
2018-03-02T04:07:17.195Z,66.30
2018-03-02T04:09:46.287Z,78.13
2018-03-02T04:12:15.399Z,77.07
2018-03-02T04:14:44.502Z,65.43
2018-03-02T04:17:14.383Z,69.80
2018-03-02T04:19:43.491Z,68.27
2018-03-02T04:22:12.620Z,60.90
2018-03-02T04:24:42.488Z,68.00
2018-03-02T04:27:11.618Z,70.70
2018-03-02T04:29:40.703Z,70.30
2018-03-02T04:32:09.821Z,63.70
2018-03-02T04:34:39.690Z,80.20
2018-03-02T04:37:08.799Z,72.00
2018-03-02T04:39:37.904Z,62.60
2018-03-02T04:42:07.019Z,76.70
2018-03-02T04:44:36.906Z,66.83
2018-03-02T04:47:06.008Z,74.03
2018-03-02T04:49:35.130Z,66.23
2018-03-02T04:52:05.018Z,63.23
2018-03-02T04:54:34.113Z,65.17
2018-03-02T04:57:03.222Z,66.27
2018-03-02T04:59:32.347Z,70.17
2018-03-02T05:02:02.209Z,81.10
2018-03-02T05:04:31.319Z,75.20
2018-03-02T05:07:00.414Z,76.67
2018-03-02T05:09:29.533Z,57.97
2018-03-02T05:11:59.397Z,64.20
2018-03-02T05:14:28.525Z,63.70
2018-03-02T05:16:57.630Z,72.13
2018-03-02T05:19:26.736Z,67.33
2018-03-02T05:21:56.592Z,72.43
2018-03-02T05:24:25.692Z,70.00
2018-03-02T05:26:54.795Z,75.97
2018-03-02T05:29:23.934Z,60.13
2018-03-02T05:31:53.805Z,72.93
2018-03-02T05:34:22.930Z,69.60
2018-03-02T05:36:52.028Z,70.83
2018-03-02T05:39:21.180Z,71.43
2018-03-02T05:41:50.293Z,62.50
2018-03-02T05:44:19.442Z,77.70
2018-03-02T05:46:49.314Z,66.23
2018-03-02T05:49:18.422Z,67.53
2018-03-02T05:51:47.534Z,69.90
2018-03-02T05:54:17.397Z,75.97
2018-03-02T05:56:46.521Z,61.37
2018-03-02T05:59:15.620Z,71.03
2018-03-02T06:01:44.757Z,68.20
2018-03-02T06:04:14.638Z,71.20
2018-03-02T06:06:43.741Z,74.10
2018-03-02T06:09:12.849Z,71.17
2018-03-02T06:11:42.713Z,72.20
2018-03-02T06:14:12.589Z,64.23
2018-03-02T06:16:41.753Z,65.47
2018-03-02T06:19:10.834Z,68.07
2018-03-02T06:21:39.979Z,74.23
2018-03-02T06:24:09.832Z,82.60
2018-03-02T06:26:38.936Z,70.20
2018-03-02T06:29:08.058Z,68.23
2018-03-02T06:31:37.186Z,65.83
2018-03-02T06:34:07.071Z,72.33
2018-03-02T06:36:37.693Z,76.33
2018-03-02T06:39:06.816Z,75.90
2018-03-02T06:41:36.679Z,73.77
2018-03-02T06:44:05.810Z,70.10
2018-03-02T06:46:34.917Z,72.87
2018-03-02T06:49:04.790Z,67.40
2018-03-02T06:51:33.913Z,72.27
2018-03-02T06:54:03.029Z,70.03
2018-03-02T06:56:32.906Z,71.27
2018-03-02T06:59:02.004Z,75.13
2018-03-02T07:01:31.117Z,74.10
2018-03-02T07:04:00.232Z,63.60
2018-03-02T07:06:30.106Z,64.67
2018-03-02T07:08:59.206Z,82.80
2018-03-02T07:11:28.329Z,72.73
2018-03-02T07:13:58.225Z,65.80
2018-03-02T07:16:27.342Z,87.83
2018-03-02T07:18:58.196Z,70.80
2018-03-02T07:21:28.075Z,75.63
2018-03-02T07:23:57.200Z,77.87
2018-03-02T07:26:27.067Z,71.17
2018-03-02T07:28:56.956Z,77.60
2018-03-02T07:31:26.071Z,65.47
2018-03-02T07:33:55.161Z,78.53
2018-03-02T07:36:24.276Z,73.97
2018-03-02T07:38:53.370Z,68.30
2018-03-02T07:41:22.498Z,72.90
2018-03-02T07:43:52.362Z,64.40
2018-03-02T07:46:21.482Z,76.57
2018-03-02T07:48:50.587Z,74.00
2018-03-02T07:51:19.706Z,66.40
2018-03-02T07:53:49.613Z,76.73
2018-03-02T07:56:18.717Z,72.73
2018-03-02T07:58:48.602Z,82.83
2018-03-02T08:01:17.721Z,71.97
2018-03-02T08:03:47.590Z,73.00
2018-03-02T08:06:16.720Z,71.50
2018-03-02T08:08:46.610Z,65.77
2018-03-02T08:11:16.483Z,77.47
2018-03-02T08:13:45.642Z,83.93
2018-03-02T08:16:14.758Z,69.27
2018-03-02T08:18:44.990Z,70.63
2018-03-02T08:21:14.869Z,75.73
2018-03-02T08:23:44.001Z,78.00
2018-03-02T08:26:13.881Z,82.63
2018-03-02T08:28:42.997Z,74.53
2018-03-02T08:31:12.238Z,78.07
2018-03-02T08:33:41.531Z,73.47
2018-03-02T08:36:10.771Z,79.67
2018-03-02T08:38:39.869Z,79.13
2018-03-02T08:41:08.986Z,72.47
2018-03-02T08:43:38.966Z,72.17
2018-03-02T08:46:08.086Z,87.37
2018-03-02T08:48:37.202Z,80.17
2018-03-02T08:51:07.023Z,81.20
2018-03-02T08:53:36.870Z,86.93
2018-03-02T08:56:05.980Z,75.70
2018-03-02T08:58:35.113Z,82.20
2018-03-02T09:01:05.010Z,79.47
2018-03-02T09:03:34.135Z,73.93
2018-03-02T09:06:04.036Z,78.27
2018-03-02T09:08:33.181Z,87.07
2018-03-02T09:11:02.297Z,68.73
2018-03-02T09:13:31.415Z,83.60
2018-03-02T09:16:00.518Z,81.03
2018-03-02T09:18:29.622Z,93.30
2018-03-02T09:20:59.519Z,74.80
2018-03-02T09:23:28.649Z,74.37
2018-03-02T09:25:58.534Z,73.63
2018-03-02T09:28:27.639Z,91.60
2018-03-02T09:30:56.759Z,96.90
2018-03-02T09:33:25.853Z,88.97
2018-03-02T09:35:54.961Z,80.23
2018-03-02T09:38:24.061Z,74.53
2018-03-02T09:40:53.214Z,78.07
2018-03-02T09:43:22.345Z,84.77
2018-03-02T09:45:52.209Z,105.67
2018-03-02T09:48:21.334Z,90.03
2018-03-02T09:50:50.425Z,87.40
2018-03-02T09:53:20.301Z,85.37
2018-03-02T09:55:50.188Z,86.43
2018-03-02T09:58:19.270Z,84.17
2018-03-02T10:00:48.398Z,77.67
2018-03-02T10:03:17.534Z,87.73
2018-03-02T10:05:47.167Z,87.53
2018-03-02T10:08:17.039Z,86.03
2018-03-02T10:10:46.128Z,105.67
2018-03-02T10:13:15.238Z,99.03
2018-03-02T10:15:44.368Z,86.90
2018-03-02T10:18:14.237Z,95.90
2018-03-02T10:20:43.338Z,92.97
2018-03-02T10:23:12.473Z,93.27
2018-03-02T10:25:42.363Z,79.03
2018-03-02T10:28:11.441Z,90.20
2018-03-02T10:30:41.362Z,79.70
2018-03-02T10:33:10.468Z,77.57
2018-03-02T10:35:39.645Z,76.50
2018-03-02T10:38:09.476Z,95.23
2018-03-02T10:40:38.611Z,90.00
2018-03-02T10:43:07.712Z,83.40
2018-03-02T10:45:36.849Z,92.13
2018-03-02T10:48:05.992Z,81.43
2018-03-02T10:50:35.068Z,95.37
2018-03-02T10:53:04.181Z,79.23
2018-03-02T10:55:34.050Z,76.93
2018-03-02T10:58:03.139Z,77.07
2018-03-02T11:00:37.681Z,82.47
2018-03-02T11:03:06.780Z,90.20
2018-03-02T11:05:41.515Z,84.27
2018-03-02T11:08:10.611Z,73.33
2018-03-02T11:10:39.727Z,79.20
2018-03-02T11:13:09.573Z,85.90
2018-03-02T11:15:38.688Z,68.53
2018-03-02T11:18:07.796Z,78.37
2018-03-02T11:20:36.899Z,80.60
2018-03-02T11:23:06.003Z,94.47
2018-03-02T11:25:35.144Z,83.40
2018-03-02T11:28:04.992Z,86.27
2018-03-02T11:30:34.121Z,84.43
2018-03-02T11:33:04.730Z,85.13
2018-03-02T11:35:33.821Z,77.77
2018-03-02T11:38:02.930Z,79.90
2018-03-02T11:40:32.005Z,81.00
2018-03-02T11:43:01.117Z,80.00
2018-03-02T11:45:30.218Z,73.70
2018-03-02T11:47:59.334Z,74.53
2018-03-02T11:50:29.203Z,79.67
2018-03-02T11:52:58.316Z,76.47
2018-03-02T11:55:27.416Z,80.87
2018-03-02T11:57:56.572Z,75.37
2018-03-02T12:00:25.707Z,71.27
2018-03-02T12:02:54.792Z,73.83
2018-03-02T12:05:23.897Z,96.20
2018-03-02T12:07:52.989Z,94.67
2018-03-02T12:10:22.910Z,102.07
2018-03-02T12:12:51.993Z,90.17
2018-03-02T12:15:21.097Z,78.60
2018-03-02T12:17:50.193Z,85.97
2018-03-02T12:20:19.332Z,80.00
2018-03-02T12:22:49.208Z,74.37
2018-03-02T12:25:18.320Z,93.50
2018-03-02T12:27:47.393Z,73.87
2018-03-02T12:30:16.538Z,83.10
2018-03-02T12:32:46.406Z,82.70
2018-03-02T12:35:15.520Z,78.57
2018-03-02T12:37:44.634Z,100.20
2018-03-02T12:40:15.547Z,85.53
2018-03-02T12:42:44.655Z,73.10
2018-03-02T12:45:13.773Z,78.63
2018-03-02T12:47:43.644Z,83.33
2018-03-02T12:50:12.773Z,88.50
2018-03-02T12:52:42.628Z,83.10
2018-03-02T12:55:11.810Z,86.77
2018-03-02T12:57:40.856Z,77.63
2018-03-02T13:00:09.995Z,97.87
2018-03-02T13:02:39.130Z,78.20
2018-03-02T13:05:08.232Z,85.10
2018-03-02T13:07:37.354Z,83.17
2018-03-02T13:10:06.452Z,80.90
2018-03-02T13:12:35.556Z,93.30
2018-03-02T13:15:04.655Z,79.43
2018-03-02T13:17:34.522Z,92.70
2018-03-02T13:20:03.650Z,89.50
2018-03-02T13:22:43.257Z,86.20
2018-03-02T13:25:12.400Z,80.57
2018-03-02T13:27:59.203Z,74.67
2018-03-02T13:30:28.318Z,81.23
2018-03-02T13:33:15.868Z,84.67
2018-03-02T13:35:44.982Z,90.17
2018-03-02T13:38:14.091Z,78.93
2018-03-02T13:41:00.872Z,82.30
2018-03-02T13:43:29.991Z,75.83
2018-03-02T13:45:59.080Z,77.23
2018-03-02T13:48:46.645Z,77.67
2018-03-02T13:51:15.754Z,71.73
2018-03-02T13:53:45.662Z,83.97
2018-03-02T13:56:32.423Z,80.60
2018-03-02T13:59:01.565Z,74.03
2018-03-02T14:01:30.685Z,77.23
2018-03-02T14:04:18.182Z,86.60
2018-03-02T14:06:47.299Z,76.93
2018-03-02T14:09:17.185Z,74.70
2018-03-02T14:11:46.299Z,80.53
2018-03-02T14:14:15.415Z,81.00
2018-03-02T14:16:45.313Z,81.13
2018-03-02T14:19:14.458Z,82.47
2018-03-02T14:21:44.387Z,77.87
2018-03-02T14:24:13.506Z,79.80
2018-03-02T14:26:43.370Z,69.93
2018-03-02T14:29:12.519Z,75.23
2018-03-02T14:31:41.622Z,76.53
2018-03-02T14:34:10.747Z,69.97
2018-03-02T14:36:40.609Z,84.10
2018-03-02T14:39:09.731Z,75.37
2018-03-02T14:41:38.867Z,78.73
2018-03-02T14:44:07.969Z,76.57
2018-03-02T14:46:37.094Z,74.40
2018-03-02T14:49:06.169Z,83.57
2018-03-02T14:51:35.382Z,85.60
2018-03-02T14:54:04.427Z,83.53
2018-03-02T14:56:34.318Z,72.73
2018-03-02T14:59:03.428Z,71.47
2018-03-02T15:01:32.541Z,81.67
2018-03-02T15:04:02.401Z,80.17
2018-03-02T15:06:31.524Z,90.60
2018-03-02T15:09:00.644Z,78.07
2018-03-02T15:11:30.537Z,88.33
2018-03-02T15:13:59.630Z,84.93
2018-03-02T15:16:29.549Z,95.30
2018-03-02T15:18:58.666Z,85.47
2018-03-02T15:21:28.531Z,99.00
2018-03-02T15:23:57.640Z,101.73
2018-03-02T15:26:26.762Z,94.17
2018-03-02T15:28:55.851Z,76.57
2018-03-02T15:31:24.956Z,92.47
2018-03-02T15:33:54.059Z,99.47
2018-03-02T15:36:23.161Z,84.57
2018-03-02T15:38:52.264Z,94.27
2018-03-02T15:41:22.156Z,92.83
2018-03-02T15:43:51.268Z,90.43
2018-03-02T15:46:20.347Z,105.37
2018-03-02T15:48:49.508Z,99.13
2018-03-02T15:51:18.664Z,98.93
2018-03-02T15:53:48.602Z,99.43
2018-03-02T15:56:18.500Z,101.33
2018-03-02T15:58:48.411Z,92.37
2018-03-02T16:01:18.284Z,98.07
2018-03-02T16:03:47.368Z,94.07
2018-03-02T16:06:16.493Z,94.93
2018-03-02T16:08:45.599Z,102.03
2018-03-02T16:11:14.698Z,102.57
2018-03-02T16:13:43.830Z,109.63
2018-03-02T16:16:12.926Z,112.60
2018-03-02T16:18:42.047Z,125.50
2018-03-02T16:21:11.143Z,112.90
2018-03-02T16:23:40.288Z,111.03
2018-03-02T16:26:09.437Z,148.37
2018-03-02T16:28:38.563Z,152.73
2018-03-02T16:31:07.679Z,117.60
2018-03-02T16:33:37.587Z,110.63
2018-03-02T16:36:06.704Z,116.93
2018-03-02T16:38:36.609Z,110.60
2018-03-02T16:41:06.531Z,123.77
2018-03-02T16:43:36.425Z,123.57
2018-03-02T16:46:05.541Z,112.83
2018-03-02T16:48:35.462Z,123.23
2018-03-02T16:51:04.585Z,140.30
2018-03-02T16:53:34.581Z,126.13
2018-03-02T16:56:03.703Z,114.07
2018-03-02T16:58:32.798Z,119.63
2018-03-02T17:01:01.936Z,123.00
2018-03-02T17:03:31.082Z,117.30
2018-03-02T17:06:00.203Z,121.57
2018-03-02T17:08:29.366Z,127.57
2018-03-02T17:10:58.472Z,114.10
2018-03-02T17:13:27.597Z,119.17
2018-03-02T17:15:56.735Z,131.73
2018-03-02T17:18:26.625Z,133.33
2018-03-02T17:20:55.806Z,126.53
2018-03-02T17:23:24.914Z,135.70
2018-03-02T17:25:54.024Z,157.53
2018-03-02T17:28:23.179Z,153.57
2018-03-02T17:30:52.315Z,129.57
2018-03-02T17:33:22.957Z,127.47
2018-03-02T17:35:52.093Z,136.07
2018-03-02T17:38:21.261Z,128.47
2018-03-02T17:40:51.133Z,130.23
2018-03-02T17:43:20.284Z,143.63
2018-03-02T17:45:50.167Z,176.20
2018-03-02T17:48:19.287Z,170.63
2018-03-02T17:50:48.457Z,149.17
2018-03-02T17:53:17.538Z,140.70
2018-03-02T17:55:46.675Z,140.53
2018-03-02T17:58:16.539Z,132.37
2018-03-02T18:00:45.682Z,129.00
2018-03-02T18:03:15.591Z,332.00
2018-03-02T18:05:44.774Z,211.67
2018-03-02T18:08:13.856Z,162.53
2018-03-02T18:10:43.757Z,143.40
2018-03-02T18:13:12.839Z,139.90
2018-03-02T18:15:41.980Z,144.30
2018-03-02T18:18:11.118Z,129.57
2018-03-02T18:20:40.238Z,138.17
2018-03-02T18:23:09.390Z,138.33
2018-03-02T18:25:39.287Z,123.50
2018-03-02T18:28:08.417Z,141.80
2018-03-02T18:30:38.322Z,145.03
2018-03-02T18:33:08.191Z,191.30
2018-03-02T18:35:37.336Z,182.33
2018-03-02T18:38:07.240Z,153.97
2018-03-02T18:40:36.348Z,137.63
2018-03-02T18:43:06.219Z,136.93
2018-03-02T18:45:36.857Z,141.20
2018-03-02T18:48:05.971Z,142.67
2018-03-02T18:50:35.094Z,169.07
2018-03-02T18:53:04.219Z,162.23
2018-03-02T18:55:33.374Z,190.13
2018-03-02T18:58:03.273Z,181.97
2018-03-02T19:00:32.394Z,160.87
2018-03-02T19:03:01.527Z,153.60
2018-03-02T19:05:30.706Z,158.47
2018-03-02T19:07:59.816Z,156.13
2018-03-02T19:10:28.928Z,146.50
2018-03-02T19:12:58.075Z,147.50
2018-03-02T19:15:27.207Z,140.73
2018-03-02T19:17:56.345Z,137.80
2018-03-02T19:20:25.502Z,191.13
2018-03-02T19:22:54.618Z,245.80
2018-03-02T19:25:23.736Z,243.90
2018-03-02T19:27:52.863Z,177.57
2018-03-02T19:30:22.750Z,181.10
2018-03-02T19:32:51.849Z,157.90
2018-03-02T19:35:21.774Z,140.33
2018-03-02T19:37:51.658Z,133.17
2018-03-02T19:40:20.829Z,135.70
2018-03-02T19:42:49.970Z,152.87
2018-03-02T19:45:19.134Z,138.60
2018-03-02T19:47:48.285Z,148.80
2018-03-02T19:50:18.205Z,138.83
2018-03-02T19:52:48.103Z,140.20
2018-03-02T19:55:18.150Z,142.07
2018-03-02T19:57:47.272Z,142.33
2018-03-02T20:00:16.407Z,165.00
2018-03-02T20:02:45.561Z,149.77
2018-03-02T20:05:14.684Z,144.90
2018-03-02T20:07:43.813Z,143.73
2018-03-02T20:10:13.703Z,141.33
2018-03-02T20:12:44.396Z,164.67
2018-03-02T20:15:13.507Z,144.70
2018-03-02T20:17:42.657Z,163.87
2018-03-02T20:20:12.545Z,169.53
2018-03-02T20:22:41.672Z,150.10
2018-03-02T20:25:11.171Z,141.80
2018-03-02T20:27:40.347Z,138.93
2018-03-02T20:30:09.498Z,152.67
2018-03-02T20:32:38.704Z,149.33
2018-03-02T20:35:07.871Z,151.50
2018-03-02T20:37:37.773Z,145.93
2018-03-02T20:40:06.900Z,149.50
2018-03-02T20:42:36.020Z,131.93
2018-03-02T20:45:05.175Z,150.97
2018-03-02T20:47:35.117Z,139.13
2018-03-02T20:50:04.252Z,153.13
2018-03-02T20:52:33.458Z,151.27
2018-03-02T20:55:02.540Z,150.63
2018-03-02T20:57:31.668Z,158.63
2018-03-02T21:00:01.579Z,150.60
2018-03-02T21:02:31.491Z,137.80
2018-03-02T21:05:02.070Z,143.97
2018-03-02T21:07:31.191Z,155.00
2018-03-02T21:10:00.334Z,146.27
2018-03-02T21:12:31.312Z,137.57
2018-03-02T21:15:00.474Z,143.80
2018-03-02T21:17:29.629Z,146.10
2018-03-02T21:19:58.738Z,149.40
2018-03-02T21:22:27.896Z,148.47
2018-03-02T21:24:57.039Z,136.77
2018-03-02T21:27:26.175Z,159.77
2018-03-02T21:29:56.354Z,145.13
2018-03-02T21:32:25.454Z,138.50
2018-03-02T21:34:55.366Z,150.87
2018-03-02T21:37:24.475Z,153.60
2018-03-02T21:39:54.391Z,157.20
2018-03-02T21:42:24.291Z,147.37
2018-03-02T21:44:53.416Z,157.50
2018-03-02T21:47:22.535Z,139.60
2018-03-02T21:49:51.662Z,161.87
2018-03-02T21:52:20.749Z,155.87
2018-03-02T21:54:49.927Z,171.00
2018-03-02T21:57:19.041Z,155.83
2018-03-02T21:59:48.914Z,136.57
2018-03-02T22:02:18.059Z,150.30
2018-03-02T22:04:47.181Z,161.03
2018-03-02T22:07:17.086Z,156.87
2018-03-02T22:09:46.201Z,156.33
2018-03-02T22:12:16.092Z,148.93
2018-03-02T22:14:45.202Z,152.43
2018-03-02T22:17:14.315Z,164.10
2018-03-02T22:19:43.421Z,151.97
2018-03-02T22:22:12.560Z,146.80
2018-03-02T22:24:41.674Z,159.90
2018-03-02T22:27:10.813Z,162.23
2018-03-02T22:29:39.935Z,155.23
2018-03-02T22:32:09.057Z,141.80
2018-03-02T22:34:38.177Z,157.37
2018-03-02T22:37:08.073Z,149.07
2018-03-02T22:39:37.183Z,157.30
2018-03-02T22:42:06.286Z,157.17
2018-03-02T22:44:36.175Z,144.60
2018-03-02T22:47:05.302Z,161.27
2018-03-02T22:49:35.189Z,156.83
2018-03-02T22:52:04.330Z,151.67
2018-03-02T22:54:33.423Z,152.80
2018-03-02T22:57:02.561Z,161.60
2018-03-02T22:59:31.666Z,148.57
2018-03-02T23:02:00.812Z,154.07
2018-03-02T23:04:29.939Z,153.97
2018-03-02T23:06:59.061Z,152.60
2018-03-02T23:09:28.184Z,147.87
2018-03-02T23:11:58.083Z,151.63
2018-03-02T23:14:27.230Z,167.00
2018-03-02T23:16:56.316Z,159.27
2018-03-02T23:19:25.452Z,162.37
2018-03-02T23:21:54.594Z,157.67
2018-03-02T23:24:23.721Z,162.73
2018-03-02T23:26:52.813Z,151.20
2018-03-02T23:29:21.914Z,148.90
2018-03-02T23:31:52.478Z,146.77
2018-03-02T23:34:21.598Z,146.17
2018-03-02T23:36:50.712Z,143.43
2018-03-02T23:39:20.558Z,144.90
2018-03-02T23:41:49.687Z,147.70
2018-03-02T23:44:18.774Z,142.03
2018-03-02T23:46:47.896Z,138.63
2018-03-02T23:49:17.745Z,148.73
2018-03-02T23:51:47.631Z,151.33
2018-03-02T23:54:17.554Z,159.10
2018-03-02T23:56:47.456Z,159.63
2018-03-02T23:59:17.327Z,158.13
